In Rescue
 
Open Full Screen Window  High Contrast Mode
January 17, 2021 1:43 PM CST
Weather Information
Wind Direction
  ---
Wind Speed
  00 kt (0 mph)
Wind Gust
  00 kt (0 mph)
Altimeter
29.72 in
Visibility
10 SM
Temperature
-08° C
18° F
Dewpoint
-09° C
16° F
Humidity
93%
1hr Rain Fall
00.00 in.
24hr Rain Fall
00.00 in.
Sky Condition
Overcast @ 400 ft
LIFR

METAR KORB 171943Z AUTO 00000KT 10SM OVC004 M08/M09 A2972 RMK AO2

FAA Disclaimer: The data displayed is for advisory purposes only and is not to be used for flight planning or operations.